createdAt,value
2023-04-30T00:01:21.897Z,100258.96
2023-04-30T00:04:49.628Z,100259.77
2023-04-30T00:08:17.413Z,100256.67
2023-04-30T00:11:45.324Z,100257.70
2023-04-30T00:15:13.189Z,100257.87
2023-04-30T00:18:41.155Z,100252.10
2023-04-30T00:22:09.007Z,100251.84
2023-04-30T00:25:36.696Z,100254.52
2023-04-30T00:29:01.644Z,100254.73
2023-04-30T00:32:10.635Z,100255.84
2023-04-30T00:35:19.460Z,100251.66
2023-04-30T00:38:47.282Z,100253.45
2023-04-30T00:42:15.082Z,100256.03
2023-04-30T00:45:42.789Z,100250.95
2023-04-30T00:49:10.571Z,100252.67
2023-04-30T00:52:26.419Z,100254.84
2023-04-30T00:55:52.814Z,100253.94
2023-04-30T00:59:09.053Z,100252.11
2023-04-30T01:02:37.098Z,100254.48
2023-04-30T01:05:53.611Z,100250.73
2023-04-30T01:09:21.565Z,100250.59
2023-04-30T01:12:31.208Z,100248.08
2023-04-30T01:15:41.545Z,100250.88
2023-04-30T01:18:53.217Z,100249.63
2023-04-30T01:22:21.076Z,100250.13
2023-04-30T01:25:31.046Z,100247.52
2023-04-30T01:28:25.383Z,100245.45
2023-04-30T01:31:53.232Z,100247.80
2023-04-30T01:35:03.364Z,100243.73
2023-04-30T01:38:30.557Z,100241.96
2023-04-30T01:41:36.276Z,100245.81
2023-04-30T01:44:45.341Z,100244.73
2023-04-30T01:48:08.794Z,100246.55
2023-04-30T01:51:20.844Z,100251.48
2023-04-30T01:54:29.539Z,100249.98
2023-04-30T01:57:52.641Z,100252.60
2023-04-30T02:01:02.306Z,100261.25
2023-04-30T02:04:29.996Z,100263.57
2023-04-30T02:07:58.065Z,100261.29
2023-04-30T02:11:25.767Z,100258.95
2023-04-30T02:14:53.535Z,100257.60
2023-04-30T02:18:21.548Z,100259.49
2023-04-30T02:21:49.277Z,100259.20
2023-04-30T02:25:16.936Z,100257.21
2023-04-30T02:28:44.710Z,100260.64
2023-04-30T02:31:53.687Z,100262.08
2023-04-30T02:35:21.382Z,100257.33
2023-04-30T02:38:49.125Z,100256.41
2023-04-30T02:41:57.792Z,100256.58
2023-04-30T02:45:25.681Z,100257.43
2023-04-30T02:48:53.530Z,100257.54
2023-04-30T02:52:21.261Z,100259.63
2023-04-30T02:55:48.958Z,100263.98
2023-04-30T02:58:58.551Z,100263.11
2023-04-30T03:02:26.480Z,100266.48
2023-04-30T03:05:54.401Z,100266.83
2023-04-30T03:09:22.172Z,100270.44
2023-04-30T03:12:45.780Z,100265.94
2023-04-30T03:15:55.997Z,100263.29
2023-04-30T03:19:05.708Z,100263.07
2023-04-30T03:22:29.196Z,100269.08
2023-04-30T03:25:22.725Z,100275.31
2023-04-30T03:28:34.422Z,100277.56
2023-04-30T03:31:46.667Z,100277.48
2023-04-30T03:34:42.521Z,100269.20
2023-04-30T03:37:58.356Z,100272.88
2023-04-30T03:41:26.019Z,100273.29
2023-04-30T03:44:50.105Z,100278.33
2023-04-30T03:48:17.907Z,100279.95
2023-04-30T03:51:45.854Z,100274.84
2023-04-30T03:54:30.918Z,100279.80
2023-04-30T03:57:21.911Z,100278.11
2023-04-30T04:00:14.908Z,100279.86
2023-04-30T04:03:21.678Z,100284.39
2023-04-30T04:06:37.484Z,100288.31
2023-04-30T04:09:56.181Z,100292.94
2023-04-30T04:13:23.690Z,100290.39
2023-04-30T04:16:51.340Z,100296.83
2023-04-30T04:20:19.376Z,100297.92
2023-04-30T04:23:47.345Z,100295.39
2023-04-30T04:27:06.372Z,100302.77
2023-04-30T04:30:15.611Z,100305.02
2023-04-30T04:33:43.382Z,100310.77
2023-04-30T04:37:08.196Z,100313.26
2023-04-30T04:40:24.171Z,100311.09
2023-04-30T04:43:36.997Z,100316.91
2023-04-30T04:47:04.620Z,100315.53
2023-04-30T04:50:32.649Z,100313.25
2023-04-30T04:54:00.414Z,100315.39
2023-04-30T04:57:28.267Z,100318.30
2023-04-30T05:00:55.985Z,100325.83
2023-04-30T05:04:23.731Z,100328.73
2023-04-30T05:07:51.794Z,100332.05
2023-04-30T05:11:07.276Z,100339.33
2023-04-30T05:14:16.236Z,100345.95
2023-04-30T05:17:43.955Z,100345.88
2023-04-30T05:20:55.976Z,100349.88
2023-04-30T05:24:11.443Z,100351.48
2023-04-30T05:27:36.482Z,100352.02
2023-04-30T05:30:40.212Z,100350.04
2023-04-30T05:34:08.180Z,100354.76
2023-04-30T05:37:35.933Z,100364.35
2023-04-30T05:40:59.808Z,100365.58
2023-04-30T05:44:15.354Z,100366.61
2023-04-30T05:47:19.930Z,100365.70
2023-04-30T05:50:35.736Z,100368.24
2023-04-30T05:54:03.467Z,100368.46
2023-04-30T05:57:19.260Z,100372.97
2023-04-30T06:00:46.953Z,100375.17
2023-04-30T06:03:51.686Z,100381.59
2023-04-30T06:07:19.441Z,100389.80
2023-04-30T06:10:46.345Z,100391.96
2023-04-30T06:14:14.020Z,100398.61
2023-04-30T06:17:41.896Z,100400.59
2023-04-30T06:21:09.963Z,100410.71
2023-04-30T06:24:37.726Z,100406.52
2023-04-30T06:28:05.438Z,100397.60
2023-04-30T06:30:56.129Z,100392.58
2023-04-30T06:34:24.002Z,100391.14
2023-04-30T06:37:14.272Z,100389.51
2023-04-30T06:40:29.663Z,100392.65
2023-04-30T06:43:57.495Z,100392.27
2023-04-30T06:47:07.366Z,100388.27
2023-04-30T06:50:35.086Z,100394.66
2023-04-30T06:54:02.974Z,100389.94
2023-04-30T06:57:30.914Z,100392.56
2023-04-30T07:00:59.031Z,100395.42
2023-04-30T07:04:26.750Z,100402.25
2023-04-30T07:07:54.629Z,100397.55
2023-04-30T07:11:02.849Z,100394.70
2023-04-30T07:14:11.213Z,100399.20
2023-04-30T07:17:20.728Z,100399.64
2023-04-30T07:20:48.497Z,100393.95
2023-04-30T07:24:16.378Z,100391.77
2023-04-30T07:27:24.174Z,100396.36
2023-04-30T07:30:13.969Z,100391.81
2023-04-30T07:33:41.703Z,100388.35
2023-04-30T07:36:58.040Z,100393.54
2023-04-30T07:40:35.469Z,100396.78
2023-04-30T07:43:53.342Z,100393.92
2023-04-30T07:47:01.103Z,100394.02
2023-04-30T07:50:28.734Z,100390.94
2023-04-30T07:53:56.453Z,100394.69
2023-04-30T07:57:24.166Z,100397.92
2023-04-30T08:00:52.213Z,100402.20
2023-04-30T08:04:14.315Z,100403.95
2023-04-30T08:07:42.114Z,100401.77
2023-04-30T08:11:09.890Z,100399.28
2023-04-30T08:14:37.870Z,100397.58
2023-04-30T08:18:05.600Z,100396.96
2023-04-30T08:21:33.439Z,100396.30
2023-04-30T08:25:01.460Z,100392.17
2023-04-30T08:28:29.223Z,100393.70
2023-04-30T08:31:57.227Z,100392.52
2023-04-30T08:35:24.882Z,100388.68
2023-04-30T08:38:52.805Z,100386.45
2023-04-30T08:42:20.577Z,100384.86
2023-04-30T08:45:36.062Z,100388.94
2023-04-30T08:48:45.919Z,100391.08
2023-04-30T08:51:44.017Z,100391.92
2023-04-30T08:54:52.958Z,100388.33
2023-04-30T08:58:08.962Z,100389.33
2023-04-30T09:00:59.161Z,100395.85
2023-04-30T09:04:27.094Z,100395.56
2023-04-30T09:07:36.172Z,100395.13
2023-04-30T09:11:04.016Z,100401.92
2023-04-30T09:14:04.582Z,100407.02
2023-04-30T09:17:32.524Z,100404.30
2023-04-30T09:20:21.561Z,100405.42
2023-04-30T09:23:49.397Z,100400.23
2023-04-30T09:27:01.085Z,100402.30
2023-04-30T09:30:28.760Z,100398.09
2023-04-30T09:33:56.719Z,100394.30
2023-04-30T09:37:24.504Z,100388.02
2023-04-30T09:40:52.601Z,100389.39
2023-04-30T09:44:20.265Z,100398.64
2023-04-30T09:47:48.202Z,100397.92
2023-04-30T09:51:15.803Z,100396.58
2023-04-30T09:54:28.007Z,100397.08
2023-04-30T09:57:55.651Z,100399.90
2023-04-30T10:00:45.230Z,100394.58
2023-04-30T10:04:13.050Z,100388.82
2023-04-30T10:07:40.203Z,100383.46
2023-04-30T10:11:08.074Z,100382.83
2023-04-30T10:14:36.108Z,100377.17
2023-04-30T10:18:03.894Z,100380.24
2023-04-30T10:21:31.779Z,100371.38
2023-04-30T10:24:59.697Z,100364.15
2023-04-30T10:28:08.057Z,100363.29
2023-04-30T10:31:36.091Z,100366.59
2023-04-30T10:35:03.919Z,100365.20
2023-04-30T10:38:31.929Z,100358.34
2023-04-30T10:41:59.966Z,100356.49
2023-04-30T10:45:27.676Z,100355.92
2023-04-30T10:48:55.390Z,100350.71
2023-04-30T10:52:23.320Z,100351.23
2023-04-30T10:55:11.254Z,100345.70
2023-04-30T10:58:38.991Z,100344.20
2023-04-30T11:02:06.934Z,100337.82
2023-04-30T11:05:34.727Z,100334.63
2023-04-30T11:08:39.093Z,100333.61
2023-04-30T11:11:47.346Z,100333.89
2023-04-30T11:15:15.415Z,100336.54
2023-04-30T11:18:43.110Z,100336.17
2023-04-30T11:22:10.846Z,100336.86
2023-04-30T11:25:35.527Z,100331.53
2023-04-30T11:29:03.489Z,100327.43
2023-04-30T11:31:52.402Z,100329.71
2023-04-30T11:35:19.992Z,100327.70
2023-04-30T11:38:47.804Z,100336.85
2023-04-30T11:42:15.795Z,100333.23
2023-04-30T11:45:23.606Z,100332.95
2023-04-30T11:48:51.343Z,100329.97
2023-04-30T11:52:19.113Z,100324.33
2023-04-30T11:55:46.836Z,100315.30
2023-04-30T11:58:55.092Z,100316.67
2023-04-30T12:02:22.988Z,100315.86
2023-04-30T12:05:46.299Z,100320.49
2023-04-30T12:08:37.439Z,100321.05
2023-04-30T12:11:47.088Z,100322.27
2023-04-30T12:15:14.977Z,100322.42
2023-04-30T12:18:43.061Z,100317.57
2023-04-30T12:21:52.609Z,100316.66
2023-04-30T12:25:20.399Z,100305.55
2023-04-30T12:28:48.055Z,100309.27
2023-04-30T12:32:15.946Z,100300.95
2023-04-30T12:35:32.627Z,100299.61
2023-04-30T12:38:41.266Z,100296.62
2023-04-30T12:42:08.901Z,100291.95
2023-04-30T12:45:24.810Z,100284.82
2023-04-30T12:48:52.578Z,100282.89
2023-04-30T12:52:04.174Z,100278.55
2023-04-30T12:55:20.083Z,100273.59
2023-04-30T12:58:45.272Z,100271.46
2023-04-30T13:02:13.198Z,100262.34
2023-04-30T13:05:01.810Z,100261.20
2023-04-30T13:07:58.733Z,100258.83
2023-04-30T13:11:27.506Z,100253.52
2023-04-30T13:14:35.574Z,100253.91
2023-04-30T13:18:03.408Z,100250.08
2023-04-30T13:21:31.197Z,100246.41
2023-04-30T13:24:58.984Z,100242.30
2023-04-30T13:28:07.807Z,100243.31
2023-04-30T13:30:36.332Z,100239.05
2023-04-30T13:34:04.154Z,100238.05
2023-04-30T13:37:31.865Z,100241.52
2023-04-30T13:40:59.592Z,100238.13
2023-04-30T13:44:27.339Z,100239.12
2023-04-30T13:47:36.069Z,100234.53
2023-04-30T13:50:45.082Z,100234.00
2023-04-30T13:53:36.836Z,100226.44
2023-04-30T13:56:53.333Z,100225.38
2023-04-30T14:00:05.011Z,100227.52
2023-04-30T14:02:56.766Z,100227.20
2023-04-30T14:06:24.377Z,100227.25
2023-04-30T14:09:32.172Z,100226.56
2023-04-30T14:12:40.682Z,100226.88
2023-04-30T14:16:09.495Z,100224.73
2023-04-30T14:18:39.412Z,100230.36
2023-04-30T14:21:30.298Z,100233.08
2023-04-30T14:24:39.096Z,100233.02
2023-04-30T14:27:47.249Z,100236.84
2023-04-30T14:31:15.381Z,100233.13
2023-04-30T14:34:05.168Z,100232.75
2023-04-30T14:36:54.641Z,100231.40
2023-04-30T14:39:50.440Z,100247.48
2023-04-30T14:42:47.868Z,100257.74
2023-04-30T14:45:57.321Z,100254.13
2023-04-30T14:49:23.377Z,100255.20
2023-04-30T14:52:31.089Z,100257.63
2023-04-30T14:55:02.237Z,100254.27
2023-04-30T14:58:17.927Z,100252.89
2023-04-30T15:01:45.806Z,100255.77
2023-04-30T15:04:53.458Z,100257.95
2023-04-30T15:07:42.455Z,100259.89
2023-04-30T15:11:10.413Z,100278.62
2023-04-30T15:14:38.364Z,100280.30
2023-04-30T15:18:02.037Z,100272.16
2023-04-30T15:21:11.959Z,100277.48
2023-04-30T15:24:39.821Z,100290.28
2023-04-30T15:27:48.533Z,100301.48
2023-04-30T15:31:00.287Z,100304.85
2023-04-30T15:34:28.274Z,100304.87
2023-04-30T15:37:36.878Z,100314.24
2023-04-30T15:40:45.604Z,100317.64
2023-04-30T15:44:01.726Z,100318.93
2023-04-30T15:47:21.231Z,100318.34
2023-04-30T15:50:28.634Z,100311.43
2023-04-30T15:53:25.381Z,100305.77
2023-04-30T15:56:35.165Z,100299.91
2023-04-30T15:59:07.819Z,100297.06
2023-04-30T16:01:59.784Z,100293.09
2023-04-30T16:05:27.470Z,100296.77
2023-04-30T16:08:17.367Z,100291.60
2023-04-30T16:11:25.124Z,100289.29
2023-04-30T16:14:29.224Z,100283.41
2023-04-30T16:17:25.334Z,100283.61
2023-04-30T16:20:53.378Z,100281.70
2023-04-30T16:23:43.854Z,100276.98
2023-04-30T16:26:54.144Z,100274.39
2023-04-30T16:30:22.022Z,100277.89
2023-04-30T16:33:11.186Z,100279.73
2023-04-30T16:36:20.767Z,100287.64
2023-04-30T16:39:45.829Z,100291.09
2023-04-30T16:42:54.985Z,100292.45
2023-04-30T16:46:02.953Z,100291.98
2023-04-30T16:48:52.312Z,100294.00
2023-04-30T16:52:02.080Z,100289.17
2023-04-30T16:55:10.274Z,100289.59
2023-04-30T16:58:25.869Z,100287.05
2023-04-30T17:01:34.228Z,100295.39
2023-04-30T17:05:01.952Z,100289.05
2023-04-30T17:08:23.004Z,100287.63
2023-04-30T17:11:50.876Z,100289.92
2023-04-30T17:14:59.599Z,100292.70
2023-04-30T17:18:08.624Z,100297.59
2023-04-30T17:21:36.376Z,100302.92
2023-04-30T17:24:45.176Z,100306.00
2023-04-30T17:27:55.157Z,100310.55
2023-04-30T17:31:23.154Z,100315.41
2023-04-30T17:34:47.806Z,100314.85
2023-04-30T17:37:56.790Z,100321.73
2023-04-30T17:40:54.067Z,100332.16
2023-04-30T17:43:59.533Z,100333.89
2023-04-30T17:47:27.242Z,100338.91
2023-04-30T17:50:55.122Z,100341.89
2023-04-30T17:53:45.065Z,100342.00
2023-04-30T17:56:56.805Z,100346.83
2023-04-30T18:00:19.670Z,100346.82
2023-04-30T18:03:47.737Z,100344.89
2023-04-30T18:07:15.489Z,100348.15
2023-04-30T18:10:43.256Z,100344.77
2023-04-30T18:14:11.121Z,100356.72
2023-04-30T18:17:15.216Z,100358.02
2023-04-30T18:20:38.408Z,100370.14
2023-04-30T18:23:47.043Z,100372.80
2023-04-30T18:27:14.982Z,100380.41
2023-04-30T18:30:30.831Z,100382.83
2023-04-30T18:33:58.672Z,100383.85
2023-04-30T18:37:26.513Z,100385.92
2023-04-30T18:40:54.282Z,100391.20
2023-04-30T18:44:22.446Z,100394.77
2023-04-30T18:47:50.382Z,100402.86
2023-04-30T18:51:18.162Z,100408.30
2023-04-30T18:54:45.981Z,100408.58
2023-04-30T18:58:13.887Z,100414.71
2023-04-30T19:01:42.218Z,100415.36
2023-04-30T19:04:57.795Z,100412.19
2023-04-30T19:08:25.672Z,100414.77
2023-04-30T19:11:53.268Z,100409.76
2023-04-30T19:15:21.005Z,100412.95
2023-04-30T19:18:48.825Z,100417.39
2023-04-30T19:22:16.526Z,100419.53
2023-04-30T19:25:44.395Z,100424.39
2023-04-30T19:29:12.328Z,100431.98
2023-04-30T19:32:21.374Z,100432.60
2023-04-30T19:35:49.772Z,100434.29
2023-04-30T19:39:01.933Z,100434.54
2023-04-30T19:42:30.281Z,100438.66
2023-04-30T19:45:21.828Z,100442.54
2023-04-30T19:48:49.647Z,100445.10
2023-04-30T19:51:58.319Z,100445.41
2023-04-30T19:55:26.194Z,100449.45
2023-04-30T19:58:34.979Z,100448.41
2023-04-30T20:02:03.148Z,100453.85
2023-04-30T20:05:30.751Z,100455.14
2023-04-30T20:08:19.547Z,100455.83
2023-04-30T20:11:47.291Z,100460.05
2023-04-30T20:14:57.019Z,100466.06
2023-04-30T20:18:04.852Z,100467.39
2023-04-30T20:21:27.648Z,100473.86
2023-04-30T20:24:55.431Z,100474.71
2023-04-30T20:28:23.187Z,100477.70
2023-04-30T20:31:51.238Z,100481.29
2023-04-30T20:35:19.178Z,100490.63
2023-04-30T20:38:46.831Z,100490.91
2023-04-30T20:42:14.876Z,100490.78
2023-04-30T20:45:42.683Z,100498.14
2023-04-30T20:48:51.585Z,100499.97
2023-04-30T20:52:19.568Z,100500.91
2023-04-30T20:55:47.461Z,100505.55
2023-04-30T20:59:11.308Z,100510.21
2023-04-30T21:02:37.406Z,100510.39
2023-04-30T21:06:05.268Z,100513.80
2023-04-30T21:09:12.634Z,100515.48
2023-04-30T21:12:17.062Z,100517.73
2023-04-30T21:15:39.123Z,100515.48
2023-04-30T21:19:06.883Z,100516.78
2023-04-30T21:22:22.348Z,100520.41
2023-04-30T21:25:45.187Z,100527.61
2023-04-30T21:28:54.741Z,100529.37
2023-04-30T21:31:50.344Z,100528.49
2023-04-30T21:35:05.858Z,100523.91
2023-04-30T21:38:33.862Z,100526.02
2023-04-30T21:42:01.936Z,100527.61
2023-04-30T21:45:25.203Z,100529.69
2023-04-30T21:48:18.358Z,100531.26
2023-04-30T21:51:26.517Z,100537.06
2023-04-30T21:54:54.195Z,100546.38
2023-04-30T21:58:21.874Z,100548.42
2023-04-30T22:01:45.204Z,100546.48
2023-04-30T22:05:09.436Z,100547.73
2023-04-30T22:08:29.727Z,100547.49
2023-04-30T22:11:57.522Z,100550.14
2023-04-30T22:15:29.223Z,100553.78
2023-04-30T22:18:22.154Z,100555.09
2023-04-30T22:21:49.879Z,100552.52
2023-04-30T22:25:17.585Z,100551.67
2023-04-30T22:28:26.183Z,100549.50
2023-04-30T22:31:53.986Z,100549.26
2023-04-30T22:35:17.620Z,100546.15
2023-04-30T22:38:27.777Z,100547.94
2023-04-30T22:41:21.118Z,100547.73
2023-04-30T22:44:29.510Z,100546.88
2023-04-30T22:47:45.243Z,100545.73
2023-04-30T22:50:56.765Z,100549.02
2023-04-30T22:53:50.888Z,100546.95
2023-04-30T22:57:15.163Z,100547.98
2023-04-30T23:00:35.839Z,100544.45
2023-04-30T23:03:45.925Z,100544.92
2023-04-30T23:07:13.440Z,100542.92
2023-04-30T23:10:36.737Z,100538.88
2023-04-30T23:14:04.478Z,100535.05
2023-04-30T23:17:32.331Z,100536.81
2023-04-30T23:21:00.029Z,100530.46
2023-04-30T23:24:27.794Z,100533.43
2023-04-30T23:27:55.499Z,100532.23
2023-04-30T23:31:23.314Z,100529.54
2023-04-30T23:34:39.025Z,100523.60
2023-04-30T23:38:07.220Z,100524.23
2023-04-30T23:41:19.476Z,100522.10
2023-04-30T23:44:47.507Z,100516.23
2023-04-30T23:47:59.336Z,100518.41
2023-04-30T23:51:27.160Z,100519.71
2023-04-30T23:54:55.366Z,100523.56
2023-04-30T23:58:23.239Z,100525.71
